Terminal Aerodrome Forecast
Issued by NWS Twin Cities, MN

Home | Current Version | Previous Version | Graphics & Text | Print | Product List | Glossary On
Versions: 1 2 3 4 5 6 7 8 9 10 11 12 13 14 15 16 17
702
FTUS43 KMPX 241033 AAA
TAFEAU
TAF AMD
KEAU 241033Z 2411/2506 02011KT 1/2SM SN FZFG VV005
     FM241200 03013G21KT 1 1/2SM -SN BR OVC009
      TEMPO 2413/2416 1/2SM SN FZFG
     FM241800 36014G24KT 2SM -SN BR OVC015
     FM250300 35012G20KT 4SM -SN OVC020=

USA.gov is the U.S. government's official web portal to all federal, state and local government web resources and services.